createdAt,value
2018-09-15T00:00:44.260Z,92.50
2018-09-15T00:01:44.238Z,92.60
2018-09-15T00:02:44.209Z,92.60
2018-09-15T00:03:44.186Z,92.60
2018-09-15T00:04:44.160Z,93.36
2018-09-15T00:05:44.137Z,94.12
2018-09-15T00:06:44.112Z,93.65
2018-09-15T00:07:44.086Z,93.84
2018-09-15T00:08:44.063Z,94.08
2018-09-15T00:09:44.040Z,94.08
2018-09-15T00:10:44.013Z,94.17
2018-09-15T00:11:43.989Z,94.84
2018-09-15T00:12:43.964Z,94.27
2018-09-15T00:13:43.947Z,94.74
2018-09-15T00:14:43.914Z,95.61
2018-09-15T00:15:43.889Z,95.98
2018-09-15T00:16:43.865Z,96.27
2018-09-15T00:17:43.840Z,96.65
2018-09-15T00:18:43.819Z,96.36
2018-09-15T00:19:43.789Z,96.75
2018-09-15T00:20:43.764Z,96.46
2018-09-15T00:21:43.740Z,95.79
2018-09-15T00:22:43.713Z,95.98
2018-09-15T00:23:43.690Z,95.89
2018-09-15T00:24:43.665Z,96.08
2018-09-15T00:25:43.641Z,95.79
2018-09-15T00:26:43.614Z,95.89
2018-09-15T00:27:43.589Z,96.36
2018-09-15T00:28:43.564Z,95.79
2018-09-15T00:29:43.538Z,95.98
2018-09-15T00:30:43.513Z,95.79
2018-09-15T00:31:43.487Z,96.36
2018-09-15T00:32:43.466Z,96.36
2018-09-15T00:33:43.439Z,96.56
2018-09-15T00:34:43.416Z,96.27
2018-09-15T00:35:43.386Z,96.80
2018-09-15T00:36:43.363Z,96.56
2018-09-15T00:37:43.336Z,96.56
2018-09-15T00:38:43.310Z,96.65
2018-09-15T00:39:43.284Z,96.84
2018-09-15T00:40:43.263Z,96.65
2018-09-15T00:41:43.269Z,96.46
2018-09-15T00:42:43.207Z,97.03
2018-09-15T00:43:43.182Z,96.46
2018-09-15T00:44:43.157Z,96.17
2018-09-15T00:45:43.130Z,95.70
2018-09-15T00:46:43.104Z,95.79
2018-09-15T00:47:43.080Z,95.79
2018-09-15T00:48:43.055Z,95.51
2018-09-15T00:49:43.029Z,95.32
2018-09-15T00:50:43.004Z,95.22
2018-09-15T00:51:42.979Z,95.70
2018-09-15T00:52:42.953Z,95.61
2018-09-15T00:53:42.928Z,94.74
2018-09-15T00:54:42.900Z,95.03
2018-09-15T00:55:42.874Z,95.03
2018-09-15T00:56:42.850Z,95.12
2018-09-15T00:57:42.824Z,95.12
2018-09-15T00:58:42.798Z,95.12
2018-09-15T00:59:42.772Z,95.32
2018-09-15T01:00:42.746Z,95.79
2018-09-15T01:01:42.722Z,95.79
2018-09-15T01:02:42.700Z,95.70
2018-09-15T01:03:42.669Z,96.27
2018-09-15T01:04:42.644Z,96.75
2018-09-15T01:05:42.623Z,96.08
2018-09-15T01:06:42.594Z,96.56
2018-09-15T01:07:42.567Z,96.27
2018-09-15T01:08:42.543Z,97.13
2018-09-15T01:09:42.522Z,97.03
2018-09-15T01:10:42.493Z,97.27
2018-09-15T01:11:42.465Z,96.89
2018-09-15T01:12:42.445Z,96.98
2018-09-15T01:13:42.415Z,97.08
2018-09-15T01:14:42.388Z,97.27
2018-09-15T01:15:42.362Z,97.41
2018-09-15T01:16:42.336Z,97.65
2018-09-15T01:17:42.311Z,97.46
2018-09-15T01:18:42.285Z,97.75
2018-09-15T01:19:42.260Z,97.94
2018-09-15T01:20:42.234Z,98.13
2018-09-15T01:21:42.208Z,98.51
2018-09-15T01:22:42.182Z,98.13
2018-09-15T01:23:42.156Z,98.51
2018-09-15T01:24:42.132Z,99.46
2018-09-15T01:25:42.106Z,99.75
2018-09-15T01:26:42.078Z,99.94
2018-09-15T01:27:42.054Z,98.99
2018-09-15T01:28:42.027Z,99.65
2018-09-15T01:29:42.007Z,99.75
2018-09-15T01:30:41.975Z,99.08
2018-09-15T01:31:41.950Z,98.79
2018-09-15T01:32:41.926Z,98.89
2018-09-15T01:33:41.899Z,98.99
2018-09-15T01:34:41.872Z,99.18
2018-09-15T01:35:41.846Z,99.18
2018-09-15T01:36:41.821Z,99.41
2018-09-15T01:37:41.797Z,99.22
2018-09-15T01:38:41.769Z,99.79
2018-09-15T01:39:41.744Z,99.99
2018-09-15T01:40:41.718Z,99.99
2018-09-15T01:41:41.693Z,99.99
2018-09-15T01:42:41.666Z,99.99
2018-09-15T01:43:41.640Z,99.99
2018-09-15T01:44:41.615Z,99.99
2018-09-15T01:45:41.589Z,99.99
2018-09-15T01:46:41.563Z,99.99
2018-09-15T01:47:41.538Z,99.99
2018-09-15T01:48:41.510Z,99.99
2018-09-15T01:49:41.488Z,99.99
2018-09-15T01:50:41.460Z,99.99
2018-09-15T01:51:41.433Z,99.99
2018-09-15T01:52:41.408Z,99.99
2018-09-15T01:53:41.388Z,99.99
2018-09-15T01:54:41.356Z,99.99
2018-09-15T01:55:41.338Z,99.99
2018-09-15T01:56:41.305Z,99.99
2018-09-15T01:57:41.380Z,99.99
2018-09-15T01:58:41.253Z,99.99
2018-09-15T01:59:41.228Z,99.99
2018-09-15T02:00:41.202Z,99.99
2018-09-15T02:01:41.177Z,99.99
2018-09-15T02:02:41.149Z,99.99
2018-09-15T02:03:41.129Z,99.99
2018-09-15T02:04:41.099Z,99.99
2018-09-15T02:05:41.074Z,99.99
2018-09-15T02:06:41.046Z,99.55
2018-09-15T02:07:41.021Z,99.75
2018-09-15T02:08:40.996Z,99.65
2018-09-15T02:09:40.970Z,99.94
2018-09-15T02:10:40.944Z,99.55
2018-09-15T02:11:40.917Z,99.65
2018-09-15T02:12:40.892Z,99.99
2018-09-15T02:13:40.867Z,99.94
2018-09-15T02:14:40.840Z,99.27
2018-09-15T02:15:40.814Z,98.70
2018-09-15T02:16:40.788Z,99.55
2018-09-15T02:17:40.763Z,99.75
2018-09-15T02:18:40.737Z,99.94
2018-09-15T02:19:40.711Z,99.99
2018-09-15T02:20:40.686Z,99.99
2018-09-15T02:21:40.659Z,99.99
2018-09-15T02:22:40.750Z,99.99
2018-09-15T02:23:40.612Z,99.99
2018-09-15T02:24:40.583Z,99.99
2018-09-15T02:25:40.556Z,99.99
2018-09-15T02:26:40.535Z,99.99
2018-09-15T02:27:40.504Z,99.55
2018-09-15T02:28:40.479Z,99.99
2018-09-15T02:29:40.454Z,99.70
2018-09-15T02:30:40.428Z,99.13
2018-09-15T02:31:40.402Z,99.08
2018-09-15T02:32:40.376Z,98.27
2018-09-15T02:33:40.360Z,97.70
2018-09-15T02:34:40.324Z,97.99
2018-09-15T02:35:40.300Z,98.08
2018-09-15T02:36:40.275Z,97.89
2018-09-15T02:37:40.251Z,97.99
2018-09-15T02:38:40.222Z,97.70
2018-09-15T02:39:40.198Z,97.61
2018-09-15T02:40:40.178Z,97.41
2018-09-15T02:41:40.149Z,96.84
2018-09-15T02:42:40.124Z,97.13
2018-09-15T02:43:40.098Z,96.46
2018-09-15T02:44:40.072Z,97.03
2018-09-15T02:45:40.047Z,96.75
2018-09-15T02:46:40.021Z,96.65
2018-09-15T02:47:39.996Z,97.22
2018-09-15T02:48:39.971Z,97.03
2018-09-15T02:49:39.947Z,97.13
2018-09-15T02:50:39.920Z,96.84
2018-09-15T02:51:39.895Z,97.03
2018-09-15T02:52:39.870Z,96.75
2018-09-15T02:53:39.847Z,96.84
2018-09-15T02:54:39.827Z,96.13
2018-09-15T02:55:39.795Z,95.94
2018-09-15T02:56:39.771Z,95.94
2018-09-15T02:57:39.744Z,96.51
2018-09-15T02:58:39.719Z,96.51
2018-09-15T02:59:39.698Z,96.03
2018-09-15T03:00:39.672Z,95.84
2018-09-15T03:01:39.645Z,96.13
2018-09-15T03:02:39.620Z,95.65
2018-09-15T03:03:39.595Z,96.13
2018-09-15T03:04:39.570Z,96.13
2018-09-15T03:05:39.546Z,95.84
2018-09-15T03:06:39.522Z,96.22
2018-09-15T03:07:39.495Z,96.51
2018-09-15T03:08:39.471Z,95.84
2018-09-15T03:09:39.446Z,96.51
2018-09-15T03:10:39.426Z,95.94
2018-09-15T03:11:39.397Z,95.17
2018-09-15T03:12:39.371Z,95.27
2018-09-15T03:13:39.349Z,95.46
2018-09-15T03:14:39.319Z,95.46
2018-09-15T03:15:39.295Z,95.65
2018-09-15T03:16:39.271Z,96.03
2018-09-15T03:17:39.246Z,96.03
2018-09-15T03:18:39.222Z,96.03
2018-09-15T03:19:39.195Z,95.94
2018-09-15T03:20:39.170Z,95.84
2018-09-15T03:21:39.147Z,96.08
2018-09-15T03:22:39.121Z,96.65
2018-09-15T03:23:39.099Z,96.65
2018-09-15T03:24:39.072Z,97.13
2018-09-15T03:25:39.045Z,97.61
2018-09-15T03:26:39.020Z,97.51
2018-09-15T03:27:38.995Z,97.70
2018-09-15T03:28:38.970Z,98.08
2018-09-15T03:29:38.944Z,97.51
2018-09-15T03:30:38.920Z,97.99
2018-09-15T03:31:38.893Z,98.46
2018-09-15T03:32:38.869Z,98.51
2018-09-15T03:33:38.844Z,98.32
2018-09-15T03:34:38.818Z,99.13
2018-09-15T03:35:38.792Z,99.08
2018-09-15T03:36:38.768Z,99.18
2018-09-15T03:37:38.744Z,99.75
2018-09-15T03:38:38.717Z,99.75
2018-09-15T03:39:38.690Z,99.99
2018-09-15T03:40:38.665Z,99.99
2018-09-15T03:41:38.757Z,99.99
2018-09-15T03:42:38.613Z,99.99
2018-09-15T03:43:38.589Z,99.99
2018-09-15T03:44:38.565Z,99.99
2018-09-15T03:45:38.540Z,99.99
2018-09-15T03:46:38.517Z,99.99
2018-09-15T03:47:38.494Z,99.99
2018-09-15T03:48:38.462Z,99.99
2018-09-15T03:49:38.435Z,99.99
2018-09-15T03:50:38.410Z,99.99
2018-09-15T03:51:38.383Z,99.99
2018-09-15T03:52:38.357Z,99.99
2018-09-15T03:53:38.332Z,99.99
2018-09-15T03:54:38.307Z,99.99
2018-09-15T03:55:38.280Z,99.99
2018-09-15T03:56:38.254Z,99.99
2018-09-15T03:57:38.230Z,99.99
2018-09-15T03:58:38.203Z,99.99
2018-09-15T03:59:38.176Z,99.99
2018-09-15T04:00:38.152Z,99.99
2018-09-15T04:01:38.125Z,99.99
2018-09-15T04:02:38.101Z,99.99
2018-09-15T04:03:38.074Z,99.99
2018-09-15T04:04:38.053Z,99.99
2018-09-15T04:05:38.030Z,99.99
2018-09-15T04:06:37.995Z,99.99
2018-09-15T04:07:37.968Z,99.99
2018-09-15T04:08:37.944Z,99.99
2018-09-15T04:09:37.917Z,99.99
2018-09-15T04:10:37.890Z,99.99
2018-09-15T04:11:37.865Z,99.99
2018-09-15T04:12:37.840Z,99.99
2018-09-15T04:13:37.813Z,99.99
2018-09-15T04:14:37.788Z,99.99
2018-09-15T04:15:37.762Z,99.99
2018-09-15T04:16:37.735Z,99.99
2018-09-15T04:17:37.709Z,99.99
2018-09-15T04:18:37.683Z,99.99
2018-09-15T04:19:37.656Z,99.99
2018-09-15T04:20:37.630Z,99.99
2018-09-15T04:21:37.605Z,99.99
2018-09-15T04:22:37.580Z,99.99
2018-09-15T04:23:37.552Z,99.99
2018-09-15T04:24:37.526Z,99.99
2018-09-15T04:25:37.500Z,99.99
2018-09-15T04:26:37.471Z,99.99
2018-09-15T04:27:37.446Z,99.99
2018-09-15T04:28:37.470Z,99.99
2018-09-15T04:29:37.397Z,99.99
2018-09-15T04:30:37.366Z,99.99
2018-09-15T04:31:37.342Z,99.99
2018-09-15T04:32:37.315Z,99.99
2018-09-15T04:33:37.289Z,99.99
2018-09-15T04:34:37.262Z,99.99
2018-09-15T04:35:37.238Z,99.99
2018-09-15T04:36:37.209Z,99.99
2018-09-15T04:37:37.184Z,99.99
2018-09-15T04:38:37.157Z,99.99
2018-09-15T04:39:37.133Z,99.99
2018-09-15T04:40:37.103Z,99.99
2018-09-15T04:41:37.081Z,99.99
2018-09-15T04:42:37.051Z,99.99
2018-09-15T04:43:37.024Z,99.99
2018-09-15T04:44:36.998Z,99.99
2018-09-15T04:45:36.971Z,99.99
2018-09-15T04:46:36.946Z,99.99
2018-09-15T04:47:36.918Z,99.99
2018-09-15T04:48:36.891Z,99.99
2018-09-15T04:49:36.865Z,99.99
2018-09-15T04:50:36.839Z,99.99
2018-09-15T04:51:36.814Z,99.99
2018-09-15T04:52:36.875Z,99.99
2018-09-15T04:53:36.760Z,99.99
2018-09-15T04:54:36.739Z,99.99
2018-09-15T04:55:36.706Z,99.99
2018-09-15T04:56:36.679Z,99.99
2018-09-15T04:57:36.652Z,99.99
2018-09-15T04:58:36.639Z,99.99
2018-09-15T04:59:36.600Z,99.99
2018-09-15T05:00:36.575Z,99.99
2018-09-15T05:01:36.547Z,99.99
2018-09-15T05:02:36.520Z,99.99
2018-09-15T05:03:36.494Z,99.99
2018-09-15T05:04:36.468Z,99.99
2018-09-15T05:05:36.440Z,99.99
2018-09-15T05:06:36.431Z,99.99
2018-09-15T05:07:36.388Z,99.99
2018-09-15T05:08:36.362Z,99.99
2018-09-15T05:09:36.335Z,99.99
2018-09-15T05:10:36.307Z,99.99
2018-09-15T05:11:36.281Z,99.99
2018-09-15T05:12:36.391Z,99.99
2018-09-15T05:13:36.229Z,99.99
2018-09-15T05:14:36.202Z,99.99
2018-09-15T05:15:36.176Z,99.99
2018-09-15T05:16:36.151Z,99.99
2018-09-15T05:17:36.125Z,99.99
2018-09-15T05:18:36.105Z,99.99
2018-09-15T05:19:36.082Z,99.99
2018-09-15T05:20:36.046Z,99.99
2018-09-15T05:21:36.021Z,99.99
2018-09-15T05:22:35.992Z,99.99
2018-09-15T05:23:35.967Z,99.99
2018-09-15T05:24:35.942Z,99.99
2018-09-15T05:25:35.924Z,99.99
2018-09-15T05:26:35.890Z,99.99
2018-09-15T05:27:35.864Z,99.99
2018-09-15T05:28:35.837Z,99.99
2018-09-15T05:29:35.812Z,99.99
2018-09-15T05:30:35.786Z,99.85
2018-09-15T05:31:35.853Z,99.85
2018-09-15T05:32:35.738Z,99.95
2018-09-15T05:33:35.710Z,99.56
2018-09-15T05:34:35.682Z,99.99
2018-09-15T05:35:35.659Z,99.85
2018-09-15T05:36:35.633Z,98.99
2018-09-15T05:37:35.607Z,99.18
2018-09-15T05:38:35.581Z,99.27
2018-09-15T05:39:35.556Z,99.08
2018-09-15T05:40:35.531Z,98.80
2018-09-15T05:41:35.506Z,98.32
2018-09-15T05:42:35.478Z,98.13
2018-09-15T05:43:35.454Z,98.61
2018-09-15T05:44:35.428Z,98.13
2018-09-15T05:45:35.403Z,98.42
2018-09-15T05:46:35.378Z,98.03
2018-09-15T05:47:35.353Z,98.42
2018-09-15T05:48:35.328Z,97.66
2018-09-15T05:49:35.309Z,97.46
2018-09-15T05:50:35.281Z,97.22
2018-09-15T05:51:35.253Z,97.32
2018-09-15T05:52:35.228Z,97.13
2018-09-15T05:53:35.203Z,96.75
2018-09-15T05:54:35.180Z,97.03
2018-09-15T05:55:35.152Z,97.13
2018-09-15T05:56:35.127Z,96.46
2018-09-15T05:57:35.104Z,96.17
2018-09-15T05:58:35.079Z,95.79
2018-09-15T05:59:35.053Z,95.51
2018-09-15T06:00:35.142Z,95.03
2018-09-15T06:01:35.021Z,94.17
2018-09-15T06:02:34.978Z,94.89
2018-09-15T06:03:34.959Z,94.89
2018-09-15T06:04:34.930Z,93.84
2018-09-15T06:05:34.905Z,93.07
2018-09-15T06:06:34.933Z,93.17
2018-09-15T06:07:34.859Z,92.88
2018-09-15T06:08:34.830Z,92.88
2018-09-15T06:09:34.807Z,92.41
2018-09-15T06:10:34.781Z,92.12
2018-09-15T06:11:34.757Z,92.21
2018-09-15T06:12:34.733Z,91.59
2018-09-15T06:13:34.732Z,92.16
2018-09-15T06:14:34.684Z,91.69
2018-09-15T06:15:34.660Z,91.30
2018-09-15T06:16:34.635Z,90.83
2018-09-15T06:17:34.611Z,90.83
2018-09-15T06:18:34.586Z,89.59
2018-09-15T06:19:34.563Z,89.97
2018-09-15T06:20:34.543Z,89.97
2018-09-15T06:21:34.515Z,89.92
2018-09-15T06:22:34.491Z,89.82
2018-09-15T06:23:34.466Z,89.06
2018-09-15T06:24:34.443Z,89.15
2018-09-15T06:25:34.418Z,89.06
2018-09-15T06:26:34.394Z,88.87
2018-09-15T06:27:34.371Z,87.57
2018-09-15T06:28:34.347Z,87.66
2018-09-15T06:29:34.322Z,86.33
2018-09-15T06:30:34.300Z,86.33
2018-09-15T06:31:34.280Z,85.47
2018-09-15T06:32:34.250Z,84.41
2018-09-15T06:33:34.228Z,82.87
2018-09-15T06:34:34.204Z,82.06
2018-09-15T06:35:34.182Z,79.60
2018-09-15T06:36:34.159Z,76.96
2018-09-15T06:37:34.136Z,76.32
2018-09-15T06:38:34.115Z,74.19
2018-09-15T06:39:34.095Z,70.43
2018-09-15T06:40:34.067Z,68.85
2018-09-15T06:41:34.046Z,68.79
2018-09-15T06:42:34.022Z,68.31
2018-09-15T06:43:34.000Z,66.52
2018-09-15T06:44:33.980Z,66.10
2018-09-15T06:45:34.030Z,66.58
2018-09-15T06:46:33.936Z,66.65
2018-09-15T06:47:33.918Z,65.01
2018-09-15T06:48:33.894Z,64.37
2018-09-15T06:49:33.874Z,63.28
2018-09-15T06:50:33.852Z,63.38
2018-09-15T06:51:33.833Z,63.70
2018-09-15T06:52:33.817Z,63.02
2018-09-15T06:53:33.794Z,63.09
2018-09-15T06:54:33.772Z,64.50
2018-09-15T06:55:33.752Z,65.56
2018-09-15T06:56:33.733Z,65.24
2018-09-15T06:57:33.713Z,62.74
2018-09-15T06:58:33.694Z,63.02
2018-09-15T06:59:33.676Z,62.57
2018-09-15T07:00:33.657Z,60.84
2018-09-15T07:01:33.637Z,60.84
2018-09-15T07:02:33.619Z,61.42
2018-09-15T07:03:33.598Z,60.75
2018-09-15T07:04:33.580Z,60.84
2018-09-15T07:05:33.562Z,61.07
2018-09-15T07:06:33.542Z,60.10
2018-09-15T07:07:33.524Z,59.52
2018-09-15T07:08:33.505Z,60.30
2018-09-15T07:09:33.487Z,59.62
2018-09-15T07:10:33.469Z,58.23
2018-09-15T07:11:33.453Z,57.27
2018-09-15T07:12:33.432Z,56.91
2018-09-15T07:13:33.414Z,56.62
2018-09-15T07:14:33.397Z,56.52
2018-09-15T07:15:33.377Z,55.94
2018-09-15T07:16:33.360Z,56.88
2018-09-15T07:17:33.342Z,57.56
2018-09-15T07:18:33.331Z,59.72
2018-09-15T07:19:33.305Z,60.17
2018-09-15T07:20:33.292Z,61.29
2018-09-15T07:21:33.270Z,61.22
2018-09-15T07:22:33.252Z,60.10
2018-09-15T07:23:33.234Z,59.07
2018-09-15T07:24:33.217Z,59.04
2018-09-15T07:25:33.199Z,59.45
2018-09-15T07:26:33.180Z,58.69
2018-09-15T07:27:33.164Z,59.17
2018-09-15T07:28:33.144Z,57.75
2018-09-15T07:29:33.127Z,57.72
2018-09-15T07:30:33.109Z,59.62
2018-09-15T07:31:33.155Z,58.78
2018-09-15T07:32:33.073Z,59.33
2018-09-15T07:33:33.055Z,60.46
2018-09-15T07:34:33.035Z,59.88
2018-09-15T07:35:33.018Z,61.97
2018-09-15T07:36:33.001Z,62.26
2018-09-15T07:37:33.007Z,62.57
2018-09-15T07:38:32.965Z,62.00
2018-09-15T07:39:32.946Z,60.97
2018-09-15T07:40:32.928Z,60.26
2018-09-15T07:41:32.914Z,57.42
2018-09-15T07:42:32.892Z,56.16
2018-09-15T07:43:32.876Z,55.62
2018-09-15T07:44:32.861Z,54.10
2018-09-15T07:45:32.840Z,54.62
2018-09-15T07:46:32.822Z,54.17
2018-09-15T07:47:32.804Z,53.91
2018-09-15T07:48:32.786Z,53.45
2018-09-15T07:49:32.771Z,52.58
2018-09-15T07:50:32.753Z,52.26
2018-09-15T07:51:32.808Z,53.47
2018-09-15T07:52:32.722Z,55.10
2018-09-15T07:53:32.702Z,54.82
2018-09-15T07:54:32.688Z,55.30
2018-09-15T07:55:32.667Z,55.46
2018-09-15T07:56:32.651Z,56.43
2018-09-15T07:57:32.699Z,55.88
2018-09-15T07:58:32.617Z,54.94
2018-09-15T07:59:32.602Z,54.27
2018-09-15T08:00:32.586Z,56.04
2018-09-15T08:01:32.568Z,56.43
2018-09-15T08:02:32.550Z,56.81
2018-09-15T08:03:32.534Z,57.72
2018-09-15T08:04:32.517Z,59.33
2018-09-15T08:05:32.502Z,62.64
2018-09-15T08:06:32.484Z,64.50
2018-09-15T08:07:32.467Z,66.49
2018-09-15T08:08:32.450Z,65.33
2018-09-15T08:09:32.434Z,62.90
2018-09-15T08:10:32.414Z,60.52
2018-09-15T08:11:32.396Z,58.84
2018-09-15T08:12:32.380Z,57.49
2018-09-15T08:13:32.361Z,57.14
2018-09-15T08:14:32.345Z,55.38
2018-09-15T08:15:32.363Z,53.77
2018-09-15T08:16:32.308Z,52.99
2018-09-15T08:17:32.291Z,52.39
2018-09-15T08:18:32.274Z,52.89
2018-09-15T08:19:32.256Z,52.08
2018-09-15T08:20:32.262Z,50.52
2018-09-15T08:21:32.224Z,50.24
2018-09-15T08:22:32.205Z,49.19
2018-09-15T08:23:32.188Z,48.52
2018-09-15T08:24:32.174Z,48.66
2018-09-15T08:25:32.161Z,47.60
2018-09-15T08:26:32.153Z,47.62
2018-09-15T08:27:32.140Z,47.55
2018-09-15T08:28:32.113Z,49.29
2018-09-15T08:29:32.094Z,49.49
2018-09-15T08:30:32.077Z,49.17
2018-09-15T08:31:32.063Z,50.89
2018-09-15T08:32:32.047Z,49.77
2018-09-15T08:33:32.033Z,50.48
2018-09-15T08:34:32.015Z,52.02
2018-09-15T08:35:31.999Z,50.72
2018-09-15T08:36:31.985Z,50.40
2018-09-15T08:37:32.023Z,51.35
2018-09-15T08:38:31.952Z,50.98
2018-09-15T08:39:31.938Z,50.96
2018-09-15T08:40:31.928Z,51.95
2018-09-15T08:41:31.905Z,54.55
2018-09-15T08:42:31.890Z,53.83
2018-09-15T08:43:31.874Z,51.73
2018-09-15T08:44:31.859Z,51.54
2018-09-15T08:45:31.842Z,51.54
2018-09-15T08:46:31.827Z,51.66
2018-09-15T08:47:31.810Z,49.39
2018-09-15T08:48:31.793Z,49.10
2018-09-15T08:49:31.776Z,47.60
2018-09-15T08:50:31.761Z,47.03
2018-09-15T08:51:31.746Z,47.11
2018-09-15T08:52:31.730Z,48.59
2018-09-15T08:53:31.713Z,51.54
2018-09-15T08:54:31.697Z,52.31
2018-09-15T08:55:31.683Z,51.88
2018-09-15T08:56:31.665Z,49.77
2018-09-15T08:57:31.648Z,49.27
2018-09-15T08:58:31.639Z,51.30
2018-09-15T08:59:31.616Z,50.82
2018-09-15T09:00:31.602Z,49.10
2018-09-15T09:01:31.586Z,48.35
2018-09-15T09:02:31.569Z,47.69
2018-09-15T09:03:31.557Z,46.86
2018-09-15T09:04:31.539Z,44.68
2018-09-15T09:05:31.524Z,42.76
2018-09-15T09:06:31.508Z,42.56
2018-09-15T09:07:31.494Z,43.59
2018-09-15T09:08:31.479Z,44.64
2018-09-15T09:09:31.464Z,44.34
2018-09-15T09:10:31.448Z,46.04
2018-09-15T09:11:31.434Z,45.78
2018-09-15T09:12:31.419Z,45.00
2018-09-15T09:13:31.404Z,44.44
2018-09-15T09:14:31.389Z,44.42
2018-09-15T09:15:31.377Z,45.17
2018-09-15T09:16:31.361Z,46.22
2018-09-15T09:17:31.346Z,48.74
2018-09-15T09:18:31.334Z,51.71
2018-09-15T09:19:31.315Z,52.45
2018-09-15T09:20:31.301Z,53.69
2018-09-15T09:21:31.285Z,54.43
2018-09-15T09:22:31.270Z,55.66
2018-09-15T09:23:31.255Z,55.66
2018-09-15T09:24:31.238Z,56.43
2018-09-15T09:25:31.222Z,56.72
2018-09-15T09:26:31.351Z,56.43
2018-09-15T09:27:31.188Z,56.56
2018-09-15T09:28:31.173Z,55.23
2018-09-15T09:29:31.156Z,54.53
2018-09-15T09:30:31.139Z,54.75
2018-09-15T09:31:31.122Z,54.82
2018-09-15T09:32:31.104Z,55.49
2018-09-15T09:33:31.088Z,55.59
2018-09-15T09:34:31.070Z,56.46
2018-09-15T09:35:31.053Z,56.56
2018-09-15T09:36:31.035Z,55.88
2018-09-15T09:37:31.018Z,57.23
2018-09-15T09:38:30.999Z,58.30
2018-09-15T09:39:30.982Z,59.65
2018-09-15T09:40:30.965Z,60.23
2018-09-15T09:41:30.964Z,59.97
2018-09-15T09:42:30.930Z,57.16
2018-09-15T09:43:30.915Z,53.57
2018-09-15T09:44:30.893Z,52.05
2018-09-15T09:45:30.882Z,50.72
2018-09-15T09:46:30.858Z,49.65
2018-09-15T09:47:30.842Z,50.76
2018-09-15T09:48:30.823Z,51.66
2018-09-15T09:49:30.810Z,51.20
2018-09-15T09:50:30.790Z,49.24
2018-09-15T09:51:30.775Z,48.15
2018-09-15T09:52:30.758Z,47.47
2018-09-15T09:53:30.741Z,49.46
2018-09-15T09:54:30.724Z,52.48
2018-09-15T09:55:30.709Z,54.46
2018-09-15T09:56:30.693Z,56.07
2018-09-15T09:57:30.677Z,56.52
2018-09-15T09:58:30.660Z,57.85
2018-09-15T09:59:30.644Z,58.78
2018-09-15T10:00:30.628Z,59.75
2018-09-15T10:01:30.610Z,60.23
2018-09-15T10:02:30.592Z,60.32
2018-09-15T10:03:30.575Z,59.36
2018-09-15T10:04:30.559Z,59.75
2018-09-15T10:05:30.543Z,56.87
2018-09-15T10:06:30.521Z,55.16
2018-09-15T10:07:30.505Z,55.68
2018-09-15T10:08:30.487Z,56.65
2018-09-15T10:09:30.469Z,57.01
2018-09-15T10:10:30.450Z,58.17
2018-09-15T10:11:30.433Z,58.14
2018-09-15T10:12:30.415Z,59.58
2018-09-15T10:13:30.397Z,59.55
2018-09-15T10:14:30.387Z,59.36
2018-09-15T10:15:30.361Z,60.03
2018-09-15T10:16:30.345Z,60.23
2018-09-15T10:17:30.325Z,60.20
2018-09-15T10:18:30.309Z,60.39
2018-09-15T10:19:30.293Z,60.87
2018-09-15T10:20:30.270Z,61.45
2018-09-15T10:21:30.290Z,61.35
2018-09-15T10:22:30.233Z,61.16
2018-09-15T10:23:30.216Z,60.80
2018-09-15T10:24:30.196Z,61.00
2018-09-15T10:25:30.179Z,60.90
2018-09-15T10:26:30.158Z,60.13
2018-09-15T10:27:30.143Z,60.23
2018-09-15T10:28:30.121Z,60.32
2018-09-15T10:29:30.103Z,59.78
2018-09-15T10:30:30.083Z,59.00
2018-09-15T10:31:30.065Z,58.72
2018-09-15T10:32:30.048Z,58.36
2018-09-15T10:33:30.032Z,55.83
2018-09-15T10:34:30.010Z,53.38
2018-09-15T10:35:29.990Z,53.42
2018-09-15T10:36:29.973Z,54.75
2018-09-15T10:37:29.954Z,53.77
2018-09-15T10:38:29.965Z,51.47
2018-09-15T10:39:29.919Z,50.45
2018-09-15T10:40:29.985Z,48.42
2018-09-15T10:41:29.883Z,48.47
2018-09-15T10:42:29.864Z,45.68
2018-09-15T10:43:29.847Z,46.07
2018-09-15T10:44:29.830Z,46.11
2018-09-15T10:45:29.814Z,45.12
2018-09-15T10:46:29.803Z,47.64
2018-09-15T10:47:29.781Z,48.47
2018-09-15T10:48:29.762Z,51.03
2018-09-15T10:49:29.746Z,52.65
2018-09-15T10:50:29.729Z,52.91
2018-09-15T10:51:29.713Z,53.11
2018-09-15T10:52:29.782Z,52.23
2018-09-15T10:53:29.677Z,53.75
2018-09-15T10:54:29.660Z,54.72
2018-09-15T10:55:29.644Z,54.24
2018-09-15T10:56:29.627Z,54.17
2018-09-15T10:57:29.608Z,52.45
2018-09-15T10:58:29.640Z,51.95
2018-09-15T10:59:29.574Z,52.33
2018-09-15T11:00:29.626Z,53.37
2018-09-15T11:01:29.540Z,54.79
2018-09-15T11:02:29.520Z,55.18
2018-09-15T11:03:29.503Z,55.36
2018-09-15T11:04:29.486Z,55.56
2018-09-15T11:05:29.469Z,54.60
2018-09-15T11:06:29.455Z,55.60
2018-09-15T11:07:29.432Z,55.76
2018-09-15T11:08:29.419Z,53.01
2018-09-15T11:09:29.398Z,53.56
2018-09-15T11:10:29.379Z,52.98
2018-09-15T11:11:29.360Z,54.24
2018-09-15T11:12:29.343Z,54.69
2018-09-15T11:13:29.357Z,54.86
2018-09-15T11:14:29.307Z,55.99
2018-09-15T11:15:29.291Z,56.47
2018-09-15T11:16:29.271Z,56.95
2018-09-15T11:17:29.253Z,57.21
2018-09-15T11:18:29.235Z,57.60
2018-09-15T11:19:29.214Z,59.14
2018-09-15T11:20:29.198Z,59.88
2018-09-15T11:21:29.179Z,60.55
2018-09-15T11:22:29.176Z,60.72
2018-09-15T11:23:29.140Z,61.29
2018-09-15T11:24:29.123Z,61.13
2018-09-15T11:25:29.104Z,61.71
2018-09-15T11:26:29.082Z,61.77
2018-09-15T11:27:29.065Z,62.06
2018-09-15T11:28:29.053Z,62.00
2018-09-15T11:29:29.027Z,62.19
2018-09-15T11:30:29.007Z,61.97
2018-09-15T11:31:28.988Z,62.19
2018-09-15T11:32:28.968Z,61.80
2018-09-15T11:33:28.949Z,61.90
2018-09-15T11:34:28.930Z,62.00
2018-09-15T11:35:28.911Z,62.00
2018-09-15T11:36:28.892Z,62.00
2018-09-15T11:37:28.873Z,62.22
2018-09-15T11:38:28.852Z,61.35
2018-09-15T11:39:28.832Z,60.90
2018-09-15T11:40:28.815Z,60.61
2018-09-15T11:41:28.794Z,61.07
2018-09-15T11:42:28.775Z,62.12
2018-09-15T11:43:28.762Z,62.03
2018-09-15T11:44:28.736Z,62.70
2018-09-15T11:45:28.718Z,61.80
2018-09-15T11:46:28.698Z,61.90
2018-09-15T11:47:28.679Z,61.52
2018-09-15T11:48:28.660Z,62.67
2018-09-15T11:49:28.641Z,61.61
2018-09-15T11:50:28.621Z,62.09
2018-09-15T11:51:28.602Z,61.61
2018-09-15T11:52:28.583Z,61.87
2018-09-15T11:53:28.563Z,61.87
2018-09-15T11:54:28.543Z,62.16
2018-09-15T11:55:28.525Z,61.32
2018-09-15T11:56:28.506Z,60.65
2018-09-15T11:57:28.485Z,60.58
2018-09-15T11:58:28.466Z,59.52
2018-09-15T11:59:28.446Z,58.78
2018-09-15T12:00:28.428Z,57.92
2018-09-15T12:01:28.460Z,58.23
2018-09-15T12:02:28.389Z,57.85
2018-09-15T12:03:28.373Z,57.29
2018-09-15T12:04:28.350Z,56.52
2018-09-15T12:05:28.332Z,56.24
2018-09-15T12:06:28.312Z,56.62
2018-09-15T12:07:28.294Z,56.24
2018-09-15T12:08:28.277Z,55.94
2018-09-15T12:09:28.256Z,56.07
2018-09-15T12:10:28.236Z,56.26
2018-09-15T12:11:28.219Z,55.98
2018-09-15T12:12:28.199Z,56.20
2018-09-15T12:13:28.182Z,55.13
2018-09-15T12:14:28.162Z,53.30
2018-09-15T12:15:28.145Z,53.23
2018-09-15T12:16:28.127Z,52.07
2018-09-15T12:17:28.107Z,52.67
2018-09-15T12:18:28.091Z,51.42
2018-09-15T12:19:28.071Z,51.28
2018-09-15T12:20:28.052Z,50.31
2018-09-15T12:21:28.137Z,51.28
2018-09-15T12:22:28.016Z,50.62
2018-09-15T12:23:28.000Z,49.24
2018-09-15T12:24:27.981Z,49.32
2018-09-15T12:25:27.970Z,50.74
2018-09-15T12:26:27.944Z,51.97
2018-09-15T12:27:27.927Z,52.45
2018-09-15T12:28:27.910Z,52.36
2018-09-15T12:29:27.892Z,53.20
2018-09-15T12:30:27.873Z,53.78
2018-09-15T12:31:27.858Z,53.17
2018-09-15T12:32:27.838Z,53.95
2018-09-15T12:33:27.834Z,54.82
2018-09-15T12:34:27.802Z,54.62
2018-09-15T12:35:27.787Z,54.14
2018-09-15T12:36:27.769Z,54.69
2018-09-15T12:37:27.749Z,54.79
2018-09-15T12:38:27.734Z,55.44
2018-09-15T12:39:27.781Z,55.15
2018-09-15T12:40:27.696Z,55.46
2018-09-15T12:41:27.679Z,55.73
2018-09-15T12:42:27.660Z,55.18
2018-09-15T12:43:27.641Z,55.66
2018-09-15T12:44:27.632Z,55.56
2018-09-15T12:45:27.605Z,55.68
2018-09-15T12:46:27.590Z,54.72
2018-09-15T12:47:27.567Z,54.75
2018-09-15T12:48:27.552Z,54.00
2018-09-15T12:49:27.532Z,53.42
2018-09-15T12:50:27.516Z,53.23
2018-09-15T12:51:27.493Z,52.84
2018-09-15T12:52:27.529Z,52.75